Terminal Aerodrome Forecast
Issued by NWS Boise, ID

Home | Current Version | Previous Version | Text Only | Print | Product List | Glossary On
Versions: 1 2 3 4 5 6 7 8 9 10 11 12 13 14 15 16 17 18 19 20 21 22 23 24 25
000
FTUS45 KBOI 220523
TAFBNO
TAF
KBNO 220523Z 2206/2306 26006KT P6SM VCSH SCT060 BKN100
     FM220900 VRB03KT P6SM BKN100
     FM221800 18008KT P6SM VCSH SCT060 BKN100
     FM230000 VRB05KT P6SM SCT200=

USA.gov is the U.S. government's official web portal to all federal, state and local government web resources and services.